createdAt,value
2023-04-08T00:02:18.849Z,101988.38
2023-04-08T00:05:05.444Z,101983.56
2023-04-08T00:07:51.347Z,101989.34
2023-04-08T00:10:37.111Z,101992.53
2023-04-08T00:13:22.607Z,101989.88
2023-04-08T00:16:08.239Z,101985.22
2023-04-08T00:18:53.610Z,101987.84
2023-04-08T00:21:39.134Z,101974.47
2023-04-08T00:24:24.536Z,101983.53
2023-04-08T00:27:09.892Z,101978.19
2023-04-08T00:29:55.332Z,101983.34
2023-04-08T00:32:41.543Z,101985.66
2023-04-08T00:35:27.112Z,101973.84
2023-04-08T00:38:12.869Z,101977.72
2023-04-08T00:40:58.686Z,101979.31
2023-04-08T00:43:44.092Z,101975.19
2023-04-08T00:46:29.496Z,101979.09
2023-04-08T00:49:14.898Z,101983.53
2023-04-08T00:52:00.683Z,101985.72
2023-04-08T00:54:46.415Z,101987.06
2023-04-08T00:57:32.156Z,101984.53
2023-04-08T01:00:17.568Z,101987.06
2023-04-08T01:03:11.774Z,101987.69
2023-04-08T01:06:02.790Z,101979.81
2023-04-08T01:08:51.975Z,101981.22
2023-04-08T01:11:42.307Z,101978.09
2023-04-08T01:14:29.128Z,101978.19
2023-04-08T01:17:18.316Z,101980.91
2023-04-08T01:20:05.743Z,101976.84
2023-04-08T01:23:00.317Z,101979.00
2023-04-08T01:25:49.959Z,101983.34
2023-04-08T01:28:37.077Z,101972.63
2023-04-08T01:31:24.215Z,101979.69
2023-04-08T01:34:11.967Z,101977.47
2023-04-08T01:36:58.765Z,101988.25
2023-04-08T01:39:45.747Z,101982.59
2023-04-08T01:42:32.720Z,101991.38
2023-04-08T01:45:18.957Z,101988.19
2023-04-08T01:48:05.680Z,101985.59
2023-04-08T01:50:52.270Z,101981.03
2023-04-08T01:53:37.973Z,101979.19
2023-04-08T01:56:27.547Z,101981.53
2023-04-08T01:59:17.153Z,101971.38
2023-04-08T02:02:07.175Z,101966.50
2023-04-08T02:04:54.349Z,101970.56
2023-04-08T02:07:39.766Z,101970.44
2023-04-08T02:10:25.291Z,101976.91
2023-04-08T02:13:11.153Z,101965.19
2023-04-08T02:16:23.110Z,101969.28
2023-04-08T02:19:16.319Z,101977.78
2023-04-08T02:22:06.969Z,101976.22
2023-04-08T02:24:53.305Z,101971.19
2023-04-08T02:27:41.666Z,101969.44
2023-04-08T02:30:31.448Z,101971.13
2023-04-08T02:33:19.724Z,101971.19
2023-04-08T02:36:06.577Z,101974.94
2023-04-08T02:38:52.401Z,101976.91
2023-04-08T02:41:38.283Z,101975.56
2023-04-08T02:44:23.922Z,101974.31
2023-04-08T02:47:09.770Z,101981.09
2023-04-08T02:49:55.319Z,101977.53
2023-04-08T02:52:41.116Z,101978.69
2023-04-08T02:55:27.019Z,101979.81
2023-04-08T02:58:12.584Z,101974.63
2023-04-08T03:00:58.063Z,101981.63
2023-04-08T03:03:43.511Z,101976.34
2023-04-08T03:06:28.914Z,101971.81
2023-04-08T03:09:14.334Z,101979.50
2023-04-08T03:11:59.507Z,101976.28
2023-04-08T03:14:44.989Z,101974.63
2023-04-08T03:17:33.833Z,101980.72
2023-04-08T03:20:19.645Z,101978.00
2023-04-08T03:23:04.994Z,101980.72
2023-04-08T03:25:50.309Z,101973.13
2023-04-08T03:28:35.816Z,101974.91
2023-04-08T03:31:21.807Z,101970.44
2023-04-08T03:34:07.417Z,101970.44
2023-04-08T03:36:52.875Z,101979.94
2023-04-08T03:39:38.575Z,101974.63
2023-04-08T03:42:24.224Z,101972.66
2023-04-08T03:45:09.967Z,101973.38
2023-04-08T03:47:55.644Z,101970.47
2023-04-08T03:50:40.995Z,101965.03
2023-04-08T03:53:28.181Z,101962.03
2023-04-08T03:56:13.615Z,101955.06
2023-04-08T03:58:59.095Z,101957.53
2023-04-08T04:01:44.558Z,101954.03
2023-04-08T04:04:30.508Z,101954.03
2023-04-08T04:07:16.513Z,101961.91
2023-04-08T04:10:02.203Z,101951.13
2023-04-08T04:12:47.844Z,101953.78
2023-04-08T04:15:33.217Z,101945.56
2023-04-08T04:18:18.672Z,101949.56
2023-04-08T04:21:07.515Z,101950.03
2023-04-08T04:23:52.812Z,101954.41
2023-04-08T04:26:40.332Z,101950.25
2023-04-08T04:29:25.878Z,101951.97
2023-04-08T04:32:11.331Z,101954.59
2023-04-08T04:34:56.932Z,101960.88
2023-04-08T04:37:42.203Z,101958.34
2023-04-08T04:40:27.600Z,101956.25
2023-04-08T04:43:12.794Z,101955.22
2023-04-08T04:45:58.280Z,101962.50
2023-04-08T04:48:43.727Z,101950.56
2023-04-08T04:51:32.666Z,101952.78
2023-04-08T04:54:18.273Z,101953.44
2023-04-08T04:57:03.812Z,101949.19
2023-04-08T04:59:49.154Z,101947.66
2023-04-08T05:02:35.003Z,101952.97
2023-04-08T05:05:20.848Z,101960.38
2023-04-08T05:08:07.621Z,101968.66
2023-04-08T05:10:55.685Z,101974.28
2023-04-08T05:13:41.226Z,101977.72
2023-04-08T05:16:27.218Z,101984.13
2023-04-08T05:19:13.063Z,101972.97
2023-04-08T05:21:58.296Z,101974.25
2023-04-08T05:24:43.662Z,101970.44
2023-04-08T05:27:28.904Z,101981.53
2023-04-08T05:30:14.440Z,101981.41
2023-04-08T05:33:00.805Z,101986.44
2023-04-08T05:35:46.952Z,101980.31
2023-04-08T05:38:32.412Z,101991.91
2023-04-08T05:41:17.659Z,101982.97
2023-04-08T05:44:03.093Z,101994.09
2023-04-08T05:46:48.573Z,101990.31
2023-04-08T05:49:34.531Z,101990.72
2023-04-08T05:52:20.468Z,101994.25
2023-04-08T05:55:06.308Z,101995.28
2023-04-08T05:57:51.824Z,101998.50
2023-04-08T06:00:37.129Z,102003.81
2023-04-08T06:03:22.663Z,102011.25
2023-04-08T06:06:14.647Z,102020.69
2023-04-08T06:09:00.419Z,102021.84
2023-04-08T06:11:47.376Z,102019.00
2023-04-08T06:14:32.785Z,102027.44
2023-04-08T06:17:18.192Z,102032.16
2023-04-08T06:20:04.236Z,102035.66
2023-04-08T06:22:49.941Z,102035.78
2023-04-08T06:25:35.278Z,102042.22
2023-04-08T06:28:20.735Z,102035.56
2023-04-08T06:31:06.358Z,102042.75
2023-04-08T06:33:52.540Z,102037.88
2023-04-08T06:36:38.057Z,102037.22
2023-04-08T06:39:23.818Z,102050.38
2023-04-08T06:42:09.150Z,102050.66
2023-04-08T06:45:11.793Z,102045.88
2023-04-08T06:47:57.071Z,102053.09
2023-04-08T06:50:43.017Z,102053.41
2023-04-08T06:53:32.972Z,102056.97
2023-04-08T06:56:18.560Z,102066.53
2023-04-08T06:59:06.909Z,102069.13
2023-04-08T07:01:52.738Z,102062.16
2023-04-08T07:04:38.473Z,102069.06
2023-04-08T07:07:24.455Z,102062.13
2023-04-08T07:10:11.283Z,102060.38
2023-04-08T07:12:57.036Z,102065.78
2023-04-08T07:15:42.488Z,102071.06
2023-04-08T07:18:27.810Z,102078.00
2023-04-08T07:21:13.162Z,102079.94
2023-04-08T07:23:58.691Z,102075.69
2023-04-08T07:26:45.330Z,102082.00
2023-04-08T07:29:31.644Z,102085.00
2023-04-08T07:32:17.560Z,102081.09
2023-04-08T07:35:02.916Z,102071.72
2023-04-08T07:37:49.140Z,102086.59
2023-04-08T07:40:34.727Z,102084.09
2023-04-08T07:43:20.127Z,102086.84
2023-04-08T07:46:06.671Z,102089.72
2023-04-08T07:48:52.967Z,102089.13
2023-04-08T07:51:39.534Z,102090.34
2023-04-08T07:54:24.921Z,102090.66
2023-04-08T07:57:10.321Z,102102.41
2023-04-08T07:59:56.101Z,102110.59
2023-04-08T08:02:41.762Z,102106.50
2023-04-08T08:05:27.219Z,102104.22
2023-04-08T08:08:12.822Z,102100.22
2023-04-08T08:10:58.356Z,102101.41
2023-04-08T08:13:43.776Z,102107.09
2023-04-08T08:16:29.933Z,102097.22
2023-04-08T08:19:15.542Z,102103.81
2023-04-08T08:22:01.007Z,102094.69
2023-04-08T08:24:46.376Z,102090.56
2023-04-08T08:27:32.318Z,102092.50
2023-04-08T08:30:19.841Z,102074.47
2023-04-08T08:33:05.268Z,102076.53
2023-04-08T08:35:50.823Z,102068.06
2023-04-08T08:38:36.291Z,102064.03
2023-04-08T08:41:21.946Z,102055.31
2023-04-08T08:44:08.131Z,102040.75
2023-04-08T08:46:53.968Z,102034.03
2023-04-08T08:49:39.677Z,102029.09
2023-04-08T08:52:25.100Z,102030.16
2023-04-08T08:55:27.669Z,102032.88
2023-04-08T08:58:15.840Z,102019.13
2023-04-08T09:01:01.508Z,102024.56
2023-04-08T09:03:47.278Z,102017.06
2023-04-08T09:06:33.328Z,102017.31
2023-04-08T09:09:18.612Z,102017.69
2023-04-08T09:12:07.022Z,102011.31
2023-04-08T09:15:07.073Z,101998.97
2023-04-08T09:17:52.770Z,102000.38
2023-04-08T09:20:52.590Z,101986.81
2023-04-08T09:23:49.280Z,101982.72
2023-04-08T09:26:37.642Z,101982.03
2023-04-08T09:29:26.390Z,101966.44
2023-04-08T09:32:12.803Z,101968.28
2023-04-08T09:34:58.300Z,101980.44
2023-04-08T09:37:43.772Z,101976.03
2023-04-08T09:40:35.075Z,101976.91
2023-04-08T09:43:25.052Z,101975.31
2023-04-08T09:46:13.051Z,101967.56
2023-04-08T09:49:07.883Z,101978.19
2023-04-08T09:52:00.702Z,101973.00
2023-04-08T09:55:05.833Z,101979.09
2023-04-08T09:57:58.588Z,101980.88
2023-04-08T10:00:51.001Z,101981.84
2023-04-08T10:03:52.781Z,101973.84
2023-04-08T10:06:39.746Z,101979.09
2023-04-08T10:09:28.084Z,101976.59
2023-04-08T10:12:13.634Z,101980.94
2023-04-08T10:15:26.983Z,101982.50
2023-04-08T10:18:13.893Z,101978.78
2023-04-08T10:20:59.169Z,101971.75
2023-04-08T10:24:06.251Z,101978.75
2023-04-08T10:26:51.888Z,101977.06
2023-04-08T10:29:37.341Z,101972.78
2023-04-08T10:32:29.187Z,101978.97
2023-04-08T10:35:14.531Z,101975.44
2023-04-08T10:38:00.503Z,101970.34
2023-04-08T10:40:46.090Z,101975.69
2023-04-08T10:43:35.770Z,101974.09
2023-04-08T10:46:22.432Z,101963.69
2023-04-08T10:49:09.023Z,101962.88
2023-04-08T10:51:54.380Z,101959.31
2023-04-08T10:54:48.371Z,101948.81
2023-04-08T10:57:34.551Z,101959.31
2023-04-08T11:00:39.624Z,101960.16
2023-04-08T11:03:28.457Z,101954.06
2023-04-08T11:06:14.022Z,101958.50
2023-04-08T11:09:03.152Z,101952.47
2023-04-08T11:11:48.715Z,101953.41
2023-04-08T11:14:34.087Z,101953.41
2023-04-08T11:17:19.744Z,101957.78
2023-04-08T11:20:06.475Z,101953.41
2023-04-08T11:22:52.111Z,101954.19
2023-04-08T11:25:37.887Z,101952.44
2023-04-08T11:28:23.710Z,101954.22
2023-04-08T11:31:09.835Z,101953.34
2023-04-08T11:33:57.440Z,101954.25
2023-04-08T11:36:42.768Z,101951.66
2023-04-08T11:39:28.235Z,101950.00
2023-04-08T11:42:39.958Z,101944.78
2023-04-08T11:45:25.683Z,101940.47
2023-04-08T11:48:12.595Z,101944.03
2023-04-08T11:51:09.333Z,101944.84
2023-04-08T11:53:56.398Z,101951.81
2023-04-08T11:56:48.870Z,101942.28
2023-04-08T11:59:34.464Z,101951.06
2023-04-08T12:02:20.363Z,101950.22
2023-04-08T12:05:06.997Z,101943.22
2023-04-08T12:07:52.340Z,101939.72
2023-04-08T12:10:37.982Z,101945.00
2023-04-08T12:13:23.606Z,101940.66
2023-04-08T12:16:09.385Z,101938.13
2023-04-08T12:18:55.003Z,101944.28
2023-04-08T12:21:40.517Z,101943.44
2023-04-08T12:24:26.770Z,101946.13
2023-04-08T12:27:12.297Z,101948.75
2023-04-08T12:29:57.711Z,101944.38
2023-04-08T12:32:45.955Z,101952.25
2023-04-08T12:35:31.671Z,101947.88
2023-04-08T12:38:17.660Z,101940.88
2023-04-08T12:41:02.978Z,101952.22
2023-04-08T12:43:48.290Z,101947.00
2023-04-08T12:46:34.172Z,101944.38
2023-04-08T12:49:19.517Z,101943.50
2023-04-08T12:52:05.538Z,101943.47
2023-04-08T12:54:50.873Z,101949.59
2023-04-08T12:57:36.249Z,101936.41
2023-04-08T13:00:21.680Z,101938.13
2023-04-08T13:03:07.268Z,101942.50
2023-04-08T13:05:52.863Z,101939.84
2023-04-08T13:08:38.092Z,101940.69
2023-04-08T13:11:23.568Z,101938.13
2023-04-08T13:14:09.254Z,101938.13
2023-04-08T13:16:54.701Z,101918.03
2023-04-08T13:19:39.971Z,101933.78
2023-04-08T13:22:25.420Z,101926.84
2023-04-08T13:25:11.031Z,101920.72
2023-04-08T13:27:56.564Z,101926.00
2023-04-08T13:30:42.587Z,101925.09
2023-04-08T13:33:28.351Z,101932.13
2023-04-08T13:36:13.745Z,101925.06
2023-04-08T13:38:59.259Z,101922.47
2023-04-08T13:41:44.814Z,101924.19
2023-04-08T13:44:30.280Z,101920.69
2023-04-08T13:47:16.387Z,101918.94
2023-04-08T13:50:01.926Z,101923.31
2023-04-08T13:52:47.318Z,101918.03
2023-04-08T13:55:32.650Z,101922.38
2023-04-08T13:58:23.838Z,101921.47
2023-04-08T14:01:10.093Z,101911.03
2023-04-08T14:03:55.820Z,101907.53
2023-04-08T14:06:41.254Z,101914.50
2023-04-08T14:09:26.687Z,101911.03
2023-04-08T14:12:11.887Z,101916.22
2023-04-08T14:14:57.390Z,101915.38
2023-04-08T14:17:42.852Z,101911.84
2023-04-08T14:20:28.318Z,101905.72
2023-04-08T14:23:13.984Z,101916.22
2023-04-08T14:26:01.498Z,101903.09
2023-04-08T14:28:47.764Z,101903.94
2023-04-08T14:31:34.335Z,101908.28
2023-04-08T14:34:19.592Z,101905.66
2023-04-08T14:37:05.649Z,101912.59
2023-04-08T14:39:51.050Z,101912.59
2023-04-08T14:42:36.486Z,101915.19
2023-04-08T14:45:22.134Z,101909.00
2023-04-08T14:48:07.469Z,101910.75
2023-04-08T14:50:53.202Z,101905.41
2023-04-08T14:53:38.694Z,101900.16
2023-04-08T14:56:24.198Z,101901.00
2023-04-08T14:59:09.689Z,101900.97
2023-04-08T15:01:55.071Z,101904.44
2023-04-08T15:04:40.998Z,101904.47
2023-04-08T15:07:26.918Z,101901.88
2023-04-08T15:10:12.448Z,101899.28
2023-04-08T15:12:58.123Z,101896.66
2023-04-08T15:15:43.690Z,101896.69
2023-04-08T15:18:29.185Z,101896.66
2023-04-08T15:21:14.461Z,101897.53
2023-04-08T15:23:59.761Z,101900.13
2023-04-08T15:26:45.058Z,101897.53
2023-04-08T15:29:31.004Z,101903.59
2023-04-08T15:32:16.325Z,101900.91
2023-04-08T15:35:02.120Z,101896.50
2023-04-08T15:37:47.419Z,101900.88
2023-04-08T15:40:35.809Z,101906.09
2023-04-08T15:43:21.401Z,101899.94
2023-04-08T15:46:07.392Z,101897.31
2023-04-08T15:48:53.443Z,101895.56
2023-04-08T15:51:39.381Z,101890.28
2023-04-08T15:54:24.801Z,101893.69
2023-04-08T15:57:10.112Z,101885.75
2023-04-08T15:59:55.372Z,101898.75
2023-04-08T16:02:41.023Z,101897.03
2023-04-08T16:05:27.691Z,101886.53
2023-04-08T16:08:15.406Z,101885.66
2023-04-08T16:11:02.790Z,101891.81
2023-04-08T16:13:48.155Z,101875.19
2023-04-08T16:16:33.836Z,101877.88
2023-04-08T16:19:19.071Z,101888.44
2023-04-08T16:22:04.423Z,101881.50
2023-04-08T16:24:49.830Z,101875.47
2023-04-08T16:27:36.989Z,101875.53
2023-04-08T16:30:22.710Z,101871.25
2023-04-08T16:33:08.032Z,101872.19
2023-04-08T16:35:54.303Z,101878.38
2023-04-08T16:38:39.599Z,101861.78
2023-04-08T16:41:24.955Z,101871.44
2023-04-08T16:44:10.483Z,101869.72
2023-04-08T16:46:55.978Z,101878.44
2023-04-08T16:49:41.432Z,101867.88
2023-04-08T16:52:27.102Z,101860.88
2023-04-08T16:55:14.510Z,101871.34
2023-04-08T16:58:01.410Z,101865.22
2023-04-08T17:00:47.203Z,101863.38
2023-04-08T17:03:32.762Z,101859.81
2023-04-08T17:06:18.282Z,101860.63
2023-04-08T17:09:04.168Z,101862.34
2023-04-08T17:11:49.596Z,101863.16
2023-04-08T17:14:35.555Z,101871.00
2023-04-08T17:17:21.238Z,101866.59
2023-04-08T17:20:07.625Z,101862.19
2023-04-08T17:22:53.181Z,101863.03
2023-04-08T17:25:38.416Z,101867.31
2023-04-08T17:28:23.875Z,101854.22
2023-04-08T17:31:10.189Z,101855.00
2023-04-08T17:33:55.532Z,101859.28
2023-04-08T17:36:41.100Z,101855.75
2023-04-08T17:39:26.724Z,101852.97
2023-04-08T17:42:13.174Z,101860.75
2023-04-08T17:44:59.782Z,101859.78
2023-04-08T17:47:44.987Z,101863.19
2023-04-08T17:50:30.361Z,101861.38
2023-04-08T17:53:15.634Z,101852.69
2023-04-08T17:56:01.334Z,101855.44
2023-04-08T17:58:48.277Z,101859.16
2023-04-08T18:01:34.061Z,101862.69
2023-04-08T18:04:21.035Z,101853.06
2023-04-08T18:07:06.774Z,101854.63
2023-04-08T18:09:52.078Z,101858.91
2023-04-08T18:12:37.572Z,101853.50
2023-04-08T18:15:23.095Z,101862.09
2023-04-08T18:18:08.535Z,101860.28
2023-04-08T18:20:53.982Z,101856.69
2023-04-08T18:23:39.896Z,101863.56
2023-04-08T18:26:25.671Z,101862.63
2023-04-08T18:29:10.985Z,101871.31
2023-04-08T18:31:56.401Z,101862.50
2023-04-08T18:34:41.973Z,101863.25
2023-04-08T18:37:27.454Z,101855.31
2023-04-08T18:40:13.340Z,101858.72
2023-04-08T18:43:02.176Z,101863.78
2023-04-08T18:45:47.803Z,101867.06
2023-04-08T18:48:33.735Z,101858.16
2023-04-08T18:51:19.037Z,101862.34
2023-04-08T18:54:04.281Z,101859.47
2023-04-08T18:56:50.564Z,101854.94
2023-04-08T18:59:35.984Z,101852.19
2023-04-08T19:02:22.818Z,101856.41
2023-04-08T19:05:08.863Z,101856.25
2023-04-08T19:07:54.141Z,101855.19
2023-04-08T19:10:39.643Z,101847.97
2023-04-08T19:13:24.994Z,101853.81
2023-04-08T19:16:11.032Z,101862.28
2023-04-08T19:18:56.943Z,101862.22
2023-04-08T19:21:42.589Z,101862.16
2023-04-08T19:24:28.224Z,101864.66
2023-04-08T19:27:16.360Z,101874.22
2023-04-08T19:30:02.170Z,101871.53
2023-04-08T19:32:48.749Z,101862.59
2023-04-08T19:35:34.813Z,101875.38
2023-04-08T19:38:20.400Z,101876.06
2023-04-08T19:41:06.174Z,101879.56
2023-04-08T19:43:52.129Z,101885.72
2023-04-08T19:46:38.250Z,101882.19
2023-04-08T19:49:24.502Z,101887.22
2023-04-08T19:52:09.862Z,101884.63
2023-04-08T19:54:55.310Z,101883.66
2023-04-08T19:57:40.604Z,101888.84
2023-04-08T20:00:28.320Z,101877.59
2023-04-08T20:03:14.041Z,101885.41
2023-04-08T20:05:59.599Z,101881.00
2023-04-08T20:08:45.657Z,101885.34
2023-04-08T20:11:32.392Z,101881.00
2023-04-08T20:14:17.825Z,101879.22
2023-04-08T20:17:04.498Z,101876.66
2023-04-08T20:19:50.057Z,101877.56
2023-04-08T20:22:35.900Z,101888.72
2023-04-08T20:25:21.222Z,101877.56
2023-04-08T20:28:07.010Z,101881.03
2023-04-08T20:30:54.088Z,101870.59
2023-04-08T20:33:43.754Z,101867.84
2023-04-08T20:36:29.687Z,101872.91
2023-04-08T20:39:15.115Z,101877.28
2023-04-08T20:42:00.332Z,101867.56
2023-04-08T20:44:45.701Z,101872.13
2023-04-08T20:47:30.892Z,101870.41
2023-04-08T20:50:16.330Z,101879.03
2023-04-08T20:53:02.098Z,101872.88
2023-04-08T20:55:47.402Z,101878.94
2023-04-08T20:58:32.788Z,101877.09
2023-04-08T21:01:18.173Z,101878.00
2023-04-08T21:04:04.943Z,101872.91
2023-04-08T21:06:51.098Z,101867.75
2023-04-08T21:09:36.741Z,101866.03
2023-04-08T21:12:22.266Z,101864.34
2023-04-08T21:15:08.168Z,101866.91
2023-04-08T21:17:53.499Z,101862.63
2023-04-08T21:20:42.157Z,101858.38
2023-04-08T21:23:28.185Z,101846.19
2023-04-08T21:26:13.713Z,101843.56
2023-04-08T21:28:59.333Z,101839.22
2023-04-08T21:31:44.609Z,101839.28
2023-04-08T21:34:30.002Z,101839.25
2023-04-08T21:37:15.549Z,101838.31
2023-04-08T21:40:01.513Z,101839.09
2023-04-08T21:42:46.995Z,101840.75
2023-04-08T21:45:32.725Z,101833.75
2023-04-08T21:48:18.594Z,101833.91
2023-04-08T21:51:03.959Z,101815.81
2023-04-08T21:53:50.806Z,101808.84
2023-04-08T21:56:36.490Z,101816.75
2023-04-08T21:59:22.311Z,101821.97
2023-04-08T22:02:09.370Z,101821.94
2023-04-08T22:04:56.547Z,101817.50
2023-04-08T22:07:42.521Z,101823.41
2023-04-08T22:10:28.360Z,101806.81
2023-04-08T22:13:17.447Z,101799.78
2023-04-08T22:16:02.948Z,101792.75
2023-04-08T22:18:48.625Z,101815.28
2023-04-08T22:21:34.176Z,101826.53
2023-04-08T22:24:20.353Z,101822.28
2023-04-08T22:27:05.905Z,101813.66
2023-04-08T22:29:51.138Z,101809.41
2023-04-08T22:32:36.501Z,101805.13
2023-04-08T22:35:22.216Z,101812.16
2023-04-08T22:38:07.763Z,101803.50
2023-04-08T22:40:53.059Z,101801.81
2023-04-08T22:43:38.310Z,101798.38
2023-04-08T22:46:23.631Z,101788.72
2023-04-08T22:49:09.024Z,101792.19
2023-04-08T22:51:54.260Z,101786.16
2023-04-08T22:54:39.731Z,101778.31
2023-04-08T22:57:24.992Z,101781.81
2023-04-08T23:00:11.450Z,101775.81
2023-04-08T23:02:57.990Z,101782.81
2023-04-08T23:05:43.488Z,101778.47
2023-04-08T23:08:28.772Z,101771.53
2023-04-08T23:11:13.893Z,101769.72
2023-04-08T23:13:59.234Z,101762.66
2023-04-08T23:16:44.574Z,101756.41
2023-04-08T23:19:29.846Z,101752.88
2023-04-08T23:22:15.500Z,101737.13
2023-04-08T23:25:01.590Z,101732.66
2023-04-08T23:27:47.009Z,101733.41
2023-04-08T23:30:32.464Z,101740.97
2023-04-08T23:33:17.718Z,101736.53
2023-04-08T23:36:11.315Z,101731.28
2023-04-08T23:38:56.843Z,101720.03
2023-04-08T23:41:42.402Z,101720.88
2023-04-08T23:44:28.016Z,101721.81
2023-04-08T23:47:13.829Z,101720.69
2023-04-08T23:49:59.102Z,101717.00
2023-04-08T23:52:44.471Z,101719.44
2023-04-08T23:55:29.775Z,101709.09
2023-04-08T23:58:15.739Z,101709.88
